sensor_id;sensor_type;location;lat;lon;timestamp;pressure;altitude;pressure_sealevel;temperature;humidity
77587;BME280;66744;49.716;17.158;2023-07-20T00:02:32;98418.16;;;21.38;61.90
77587;BME280;66744;49.716;17.158;2023-07-20T00:05:33;98411.97;;;21.21;63.45
77587;BME280;66744;49.716;17.158;2023-07-20T00:08:35;98406.69;;;20.82;64.69
77587;BME280;66744;49.716;17.158;2023-07-20T00:11:37;98391.25;;;20.76;64.92
77587;BME280;66744;49.716;17.158;2023-07-20T00:14:41;98399.31;;;20.85;64.53
77587;BME280;66744;49.716;17.158;2023-07-20T00:17:43;98392.97;;;20.84;64.10
77587;BME280;66744;49.716;17.158;2023-07-20T00:20:45;98408.66;;;20.93;63.61
77587;BME280;66744;49.716;17.158;2023-07-20T00:23:47;98412.00;;;20.86;63.65
77587;BME280;66744;49.716;17.158;2023-07-20T00:26:48;98407.09;;;20.62;63.67
77587;BME280;66744;49.716;17.158;2023-07-20T00:29:50;98413.16;;;20.66;64.03
77587;BME280;66744;49.716;17.158;2023-07-20T00:32:51;98408.31;;;20.72;63.00
77587;BME280;66744;49.716;17.158;2023-07-20T00:35:59;98409.03;;;20.78;63.50
77587;BME280;66744;49.716;17.158;2023-07-20T00:39:00;98414.75;;;20.56;64.64
77587;BME280;66744;49.716;17.158;2023-07-20T00:42:03;98418.41;;;20.40;64.85
77587;BME280;66744;49.716;17.158;2023-07-20T00:45:05;98406.53;;;20.28;65.05
77587;BME280;66744;49.716;17.158;2023-07-20T00:48:07;98414.44;;;20.19;64.73
77587;BME280;66744;49.716;17.158;2023-07-20T00:51:10;98410.44;;;20.09;65.25
77587;BME280;66744;49.716;17.158;2023-07-20T00:54:12;98414.69;;;20.26;64.90
77587;BME280;66744;49.716;17.158;2023-07-20T00:57:16;98417.47;;;20.26;64.89
77587;BME280;66744;49.716;17.158;2023-07-20T01:00:18;98412.63;;;20.32;64.43
77587;BME280;66744;49.716;17.158;2023-07-20T01:03:20;98420.19;;;20.37;64.46
77587;BME280;66744;49.716;17.158;2023-07-20T01:06:26;98431.13;;;20.35;63.44
77587;BME280;66744;49.716;17.158;2023-07-20T01:09:44;98424.31;;;20.25;64.26
77587;BME280;66744;49.716;17.158;2023-07-20T01:12:48;98424.69;;;19.94;66.22
77587;BME280;66744;49.716;17.158;2023-07-20T01:16:00;98427.28;;;19.86;65.17
77587;BME280;66744;49.716;17.158;2023-07-20T01:19:02;98422.72;;;19.83;65.90
77587;BME280;66744;49.716;17.158;2023-07-20T01:29:22;98411.56;;;19.78;67.08
77587;BME280;66744;49.716;17.158;2023-07-20T01:32:29;98400.66;;;19.85;65.53
77587;BME280;66744;49.716;17.158;2023-07-20T01:35:32;98390.03;;;19.78;65.66
77587;BME280;66744;49.716;17.158;2023-07-20T01:38:36;98393.59;;;19.73;64.57
77587;BME280;66744;49.716;17.158;2023-07-20T01:41:38;98410.09;;;19.66;65.05
77587;BME280;66744;49.716;17.158;2023-07-20T01:44:40;98415.66;;;19.71;64.50
77587;BME280;66744;49.716;17.158;2023-07-20T01:47:41;98412.91;;;19.60;65.46
77587;BME280;66744;49.716;17.158;2023-07-20T01:50:43;98418.22;;;19.58;64.92
77587;BME280;66744;49.716;17.158;2023-07-20T01:53:45;98410.91;;;19.38;66.07
77587;BME280;66744;49.716;17.158;2023-07-20T01:56:49;98422.31;;;19.35;66.12
77587;BME280;66744;49.716;17.158;2023-07-20T02:03:20;98444.06;;;19.36;64.89
77587;BME280;66744;49.716;17.158;2023-07-20T02:06:23;98435.47;;;19.51;64.18
77587;BME280;66744;49.716;17.158;2023-07-20T02:09:24;98437.47;;;19.62;63.43
77587;BME280;66744;49.716;17.158;2023-07-20T02:12:26;98438.75;;;19.61;64.29
77587;BME280;66744;49.716;17.158;2023-07-20T02:15:27;98438.25;;;19.57;63.87
77587;BME280;66744;49.716;17.158;2023-07-20T02:18:29;98447.38;;;19.52;65.11
77587;BME280;66744;49.716;17.158;2023-07-20T02:21:31;98429.13;;;19.62;64.61
77587;BME280;66744;49.716;17.158;2023-07-20T02:24:34;98442.03;;;19.65;64.47
77587;BME280;66744;49.716;17.158;2023-07-20T02:27:36;98443.53;;;19.60;63.88
77587;BME280;66744;49.716;17.158;2023-07-20T02:30:38;98455.44;;;19.66;63.62
77587;BME280;66744;49.716;17.158;2023-07-20T02:33:40;98455.97;;;19.65;64.31
77587;BME280;66744;49.716;17.158;2023-07-20T02:36:42;98449.13;;;19.60;63.45
77587;BME280;66744;49.716;17.158;2023-07-20T02:39:46;98462.56;;;19.56;63.85
77587;BME280;66744;49.716;17.158;2023-07-20T02:42:48;98453.69;;;19.58;64.01
77587;BME280;66744;49.716;17.158;2023-07-20T02:45:50;98463.31;;;19.62;63.88
77587;BME280;66744;49.716;17.158;2023-07-20T02:48:51;98458.78;;;19.54;64.04
77587;BME280;66744;49.716;17.158;2023-07-20T02:51:53;98464.34;;;19.59;63.72
77587;BME280;66744;49.716;17.158;2023-07-20T02:54:55;98455.25;;;19.48;64.86
77587;BME280;66744;49.716;17.158;2023-07-20T02:57:56;98469.41;;;19.50;64.62
77587;BME280;66744;49.716;17.158;2023-07-20T03:00:58;98457.28;;;19.42;65.20
77587;BME280;66744;49.716;17.158;2023-07-20T03:03:59;98458.50;;;19.57;63.83
77587;BME280;66744;49.716;17.158;2023-07-20T03:07:01;98473.69;;;19.73;63.98
77587;BME280;66744;49.716;17.158;2023-07-20T03:10:05;98472.69;;;19.65;64.05
77587;BME280;66744;49.716;17.158;2023-07-20T03:13:12;98482.81;;;19.51;64.85
77587;BME280;66744;49.716;17.158;2023-07-20T03:16:18;98482.34;;;19.36;65.45
77587;BME280;66744;49.716;17.158;2023-07-20T03:19:20;98502.09;;;19.49;65.17
77587;BME280;66744;49.716;17.158;2023-07-20T03:22:21;98491.47;;;19.48;64.70
77587;BME280;66744;49.716;17.158;2023-07-20T03:25:23;98489.44;;;19.54;65.01
77587;BME280;66744;49.716;17.158;2023-07-20T03:28:24;98484.88;;;19.51;64.73
77587;BME280;66744;49.716;17.158;2023-07-20T03:31:34;98497.50;;;19.57;64.47
77587;BME280;66744;49.716;17.158;2023-07-20T03:34:39;98492.97;;;19.54;64.38
77587;BME280;66744;49.716;17.158;2023-07-20T03:37:41;98511.47;;;19.52;64.56
77587;BME280;66744;49.716;17.158;2023-07-20T03:40:57;98523.13;;;19.50;64.53
77587;BME280;66744;49.716;17.158;2023-07-20T03:43:59;98528.94;;;19.41;65.50
77587;BME280;66744;49.716;17.158;2023-07-20T03:47:00;98530.19;;;19.34;65.73
77587;BME280;66744;49.716;17.158;2023-07-20T03:50:01;98519.59;;;19.44;65.29
77587;BME280;66744;49.716;17.158;2023-07-20T03:53:05;98525.41;;;19.40;65.35
77587;BME280;66744;49.716;17.158;2023-07-20T03:56:06;98528.19;;;19.52;64.33
77587;BME280;66744;49.716;17.158;2023-07-20T03:59:07;98531.22;;;19.65;64.00
77587;BME280;66744;49.716;17.158;2023-07-20T04:02:09;98531.97;;;19.76;63.69
77587;BME280;66744;49.716;17.158;2023-07-20T04:05:10;98539.28;;;19.90;63.90
77587;BME280;66744;49.716;17.158;2023-07-20T04:08:12;98539.75;;;20.00;63.40
77587;BME280;66744;49.716;17.158;2023-07-20T04:11:18;98551.16;;;20.02;63.36
77587;BME280;66744;49.716;17.158;2023-07-20T04:14:20;98552.91;;;20.11;62.97
77587;BME280;66744;49.716;17.158;2023-07-20T04:17:21;98560.75;;;20.18;62.33
77587;BME280;66744;49.716;17.158;2023-07-20T04:20:23;98569.88;;;20.18;63.65
77587;BME280;66744;49.716;17.158;2023-07-20T04:23:25;98573.44;;;20.08;63.14
77587;BME280;66744;49.716;17.158;2023-07-20T04:26:26;98587.66;;;20.15;63.75
77587;BME280;66744;49.716;17.158;2023-07-20T04:29:28;98586.63;;;20.18;63.56
77587;BME280;66744;49.716;17.158;2023-07-20T04:32:29;98596.78;;;20.10;64.48
77587;BME280;66744;49.716;17.158;2023-07-20T04:35:46;98593.50;;;20.06;64.42
77587;BME280;66744;49.716;17.158;2023-07-20T04:38:50;98593.25;;;19.93;64.20
77587;BME280;66744;49.716;17.158;2023-07-20T04:41:54;98604.16;;;19.96;63.25
77587;BME280;66744;49.716;17.158;2023-07-20T04:44:55;98608.22;;;20.07;62.87
77587;BME280;66744;49.716;17.158;2023-07-20T04:47:57;98603.66;;;20.04;62.48
77587;BME280;66744;49.716;17.158;2023-07-20T04:50:58;98604.41;;;19.98;61.79
77587;BME280;66744;49.716;17.158;2023-07-20T04:54:00;98600.13;;;19.86;62.90
77587;BME280;66744;49.716;17.158;2023-07-20T04:57:11;98620.09;;;20.02;62.56
77587;BME280;66744;49.716;17.158;2023-07-20T05:00:18;98614.78;;;20.09;62.61
77587;BME280;66744;49.716;17.158;2023-07-20T05:03:21;98615.53;;;20.15;62.36
77587;BME280;66744;49.716;17.158;2023-07-20T05:06:22;98609.69;;;20.24;62.06
77587;BME280;66744;49.716;17.158;2023-07-20T05:09:23;98616.53;;;20.40;63.06
77587;BME280;66744;49.716;17.158;2023-07-20T05:12:25;98615.22;;;20.46;61.09
77587;BME280;66744;49.716;17.158;2023-07-20T05:15:27;98619.22;;;20.68;61.59
77587;BME280;66744;49.716;17.158;2023-07-20T05:18:30;98613.59;;;20.73;61.83
77587;BME280;66744;49.716;17.158;2023-07-20T05:21:32;98616.13;;;20.77;61.17
77587;BME280;66744;49.716;17.158;2023-07-20T05:24:33;98613.84;;;20.81;60.93
77587;BME280;66744;49.716;17.158;2023-07-20T05:27:41;98600.88;;;20.83;60.88
77587;BME280;66744;49.716;17.158;2023-07-20T05:30:46;98607.63;;;21.04;59.84
77587;BME280;66744;49.716;17.158;2023-07-20T05:33:50;98608.56;;;21.18;60.34
77587;BME280;66744;49.716;17.158;2023-07-20T05:36:55;98609.31;;;21.24;59.84
77587;BME280;66744;49.716;17.158;2023-07-20T05:39:57;98622.03;;;21.20;59.20
77587;BME280;66744;49.716;17.158;2023-07-20T05:42:59;98614.97;;;21.13;58.43
77587;BME280;66744;49.716;17.158;2023-07-20T05:46:01;98619.97;;;21.20;58.38
77587;BME280;66744;49.716;17.158;2023-07-20T05:49:03;98625.06;;;21.22;59.25
77587;BME280;66744;49.716;17.158;2023-07-20T05:52:07;98609.56;;;21.21;57.92
77587;BME280;66744;49.716;17.158;2023-07-20T05:55:08;98619.38;;;21.38;58.61
77587;BME280;66744;49.716;17.158;2023-07-20T05:58:10;98613.38;;;21.23;59.41
77587;BME280;66744;49.716;17.158;2023-07-20T06:01:11;98615.13;;;21.32;58.81
77587;BME280;66744;49.716;17.158;2023-07-20T06:04:13;98621.88;;;21.42;57.62
77587;BME280;66744;49.716;17.158;2023-07-20T06:07:14;98627.38;;;21.58;57.39
77587;BME280;66744;49.716;17.158;2023-07-20T06:10:15;98618.34;;;21.71;55.78
77587;BME280;66744;49.716;17.158;2023-07-20T06:13:17;98620.38;;;21.76;57.31
77587;BME280;66744;49.716;17.158;2023-07-20T06:16:18;98619.78;;;21.83;56.33
77587;BME280;66744;49.716;17.158;2023-07-20T06:19:20;98619.50;;;21.87;55.87
77587;BME280;66744;49.716;17.158;2023-07-20T06:22:23;98626.53;;;21.99;56.05
77587;BME280;66744;49.716;17.158;2023-07-20T06:25:24;98628.34;;;21.96;56.06
77587;BME280;66744;49.716;17.158;2023-07-20T06:28:26;98629.94;;;21.86;55.78
77587;BME280;66744;49.716;17.158;2023-07-20T06:31:27;98620.53;;;21.89;56.00
77587;BME280;66744;49.716;17.158;2023-07-20T06:34:29;98625.78;;;21.98;55.20
77587;BME280;66744;49.716;17.158;2023-07-20T06:37:30;98622.81;;;21.91;55.55
77587;BME280;66744;49.716;17.158;2023-07-20T06:40:32;98616.81;;;22.05;54.23
77587;BME280;66744;49.716;17.158;2023-07-20T06:43:33;98620.84;;;22.10;54.56
77587;BME280;66744;49.716;17.158;2023-07-20T06:46:35;98621.03;;;22.18;54.06
77587;BME280;66744;49.716;17.158;2023-07-20T06:49:36;98621.13;;;22.31;54.01
77587;BME280;66744;49.716;17.158;2023-07-20T06:52:37;98624.22;;;22.27;53.42
77587;BME280;66744;49.716;17.158;2023-07-20T06:55:42;98628.03;;;22.30;54.31
77587;BME280;66744;49.716;17.158;2023-07-20T06:58:43;98624.47;;;22.29;52.74
77587;BME280;66744;49.716;17.158;2023-07-20T07:01:45;98621.84;;;22.37;53.65
77587;BME280;66744;49.716;17.158;2023-07-20T07:04:46;98630.59;;;22.28;53.09
77587;BME280;66744;49.716;17.158;2023-07-20T07:07:50;98628.97;;;22.38;52.70
77587;BME280;66744;49.716;17.158;2023-07-20T07:10:52;98632.75;;;22.40;52.54
77587;BME280;66744;49.716;17.158;2023-07-20T07:13:53;98623.47;;;22.51;52.23
77587;BME280;66744;49.716;17.158;2023-07-20T07:16:55;98620.00;;;22.45;52.17
77587;BME280;66744;49.716;17.158;2023-07-20T07:19:56;98616.09;;;22.48;51.95
77587;BME280;66744;49.716;17.158;2023-07-20T07:22:57;98623.63;;;22.58;51.55
77587;BME280;66744;49.716;17.158;2023-07-20T07:25:59;98613.66;;;22.63;51.24
77587;BME280;66744;49.716;17.158;2023-07-20T07:29:02;98618.47;;;22.68;51.02
77587;BME280;66744;49.716;17.158;2023-07-20T07:32:03;98611.44;;;22.80;51.13
77587;BME280;66744;49.716;17.158;2023-07-20T07:35:05;98623.38;;;22.81;50.16
77587;BME280;66744;49.716;17.158;2023-07-20T07:38:06;98616.00;;;22.83;50.51
77587;BME280;66744;49.716;17.158;2023-07-20T07:41:08;98616.50;;;22.82;50.45
77587;BME280;66744;49.716;17.158;2023-07-20T07:44:12;98622.06;;;23.06;50.03
77587;BME280;66744;49.716;17.158;2023-07-20T07:47:13;98627.13;;;23.26;49.13
77587;BME280;66744;49.716;17.158;2023-07-20T07:50:15;98627.78;;;23.32;49.31
77587;BME280;66744;49.716;17.158;2023-07-20T07:53:17;98632.13;;;23.33;48.77
77587;BME280;66744;49.716;17.158;2023-07-20T07:56:19;98628.25;;;23.36;48.71
77587;BME280;66744;49.716;17.158;2023-07-20T07:59:23;98629.47;;;23.41;48.72
77587;BME280;66744;49.716;17.158;2023-07-20T08:02:25;98627.41;;;23.60;48.57
77587;BME280;66744;49.716;17.158;2023-07-20T08:05:29;98629.94;;;23.76;48.25
77587;BME280;66744;49.716;17.158;2023-07-20T08:08:32;98620.81;;;23.89;47.50
77587;BME280;66744;49.716;17.158;2023-07-20T08:11:33;98632.88;;;23.84;46.96
77587;BME280;66744;49.716;17.158;2023-07-20T08:14:35;98620.41;;;23.98;46.50
77587;BME280;66744;49.716;17.158;2023-07-20T08:17:36;98624.94;;;24.01;45.65
77587;BME280;66744;49.716;17.158;2023-07-20T08:20:38;98617.19;;;24.07;45.38
77587;BME280;66744;49.716;17.158;2023-07-20T08:23:40;98627.59;;;24.25;44.73
77587;BME280;66744;49.716;17.158;2023-07-20T08:26:41;98623.38;;;24.32;45.25
77587;BME280;66744;49.716;17.158;2023-07-20T08:29:42;98628.56;;;24.28;44.70
77587;BME280;66744;49.716;17.158;2023-07-20T08:32:44;98613.47;;;24.31;43.54
77587;BME280;66744;49.716;17.158;2023-07-20T08:35:48;98622.75;;;24.52;43.50
77587;BME280;66744;49.716;17.158;2023-07-20T08:38:49;98620.72;;;24.53;44.03
77587;BME280;66744;49.716;17.158;2023-07-20T08:41:51;98638.94;;;24.72;43.84
77587;BME280;66744;49.716;17.158;2023-07-20T08:44:54;98633.69;;;24.82;42.85
77587;BME280;66744;49.716;17.158;2023-07-20T08:47:56;98643.28;;;24.86;43.22
77587;BME280;66744;49.716;17.158;2023-07-20T08:51:00;98654.19;;;24.90;41.11
77587;BME280;66744;49.716;17.158;2023-07-20T08:54:03;98646.22;;;24.94;40.96
77587;BME280;66744;49.716;17.158;2023-07-20T08:57:05;98653.53;;;25.10;40.90
77587;BME280;66744;49.716;17.158;2023-07-20T09:00:07;98639.34;;;25.16;40.29
77587;BME280;66744;49.716;17.158;2023-07-20T09:03:14;98641.06;;;25.19;40.48
77587;BME280;66744;49.716;17.158;2023-07-20T09:06:16;98643.88;;;25.19;40.26
77587;BME280;66744;49.716;17.158;2023-07-20T09:09:17;98630.25;;;25.23;40.44
77587;BME280;66744;49.716;17.158;2023-07-20T09:12:19;98630.25;;;25.23;40.06
77587;BME280;66744;49.716;17.158;2023-07-20T09:15:20;98635.47;;;25.39;39.65
77587;BME280;66744;49.716;17.158;2023-07-20T09:18:30;98635.63;;;25.34;40.80
77587;BME280;66744;49.716;17.158;2023-07-20T09:21:31;98624.28;;;25.26;38.89
77587;BME280;66744;49.716;17.158;2023-07-20T09:24:35;98630.41;;;25.38;39.79
77587;BME280;66744;49.716;17.158;2023-07-20T09:27:44;98619.34;;;25.53;39.21
77587;BME280;66744;49.716;17.158;2023-07-20T09:30:45;98621.13;;;25.64;39.11
77587;BME280;66744;49.716;17.158;2023-07-20T09:33:48;98625.47;;;25.65;38.09
77587;BME280;66744;49.716;17.158;2023-07-20T09:36:50;98636.84;;;25.59;38.08
77587;BME280;66744;49.716;17.158;2023-07-20T09:39:52;98635.41;;;25.66;38.47
77587;BME280;66744;49.716;17.158;2023-07-20T09:42:56;98643.47;;;25.82;37.69
77587;BME280;66744;49.716;17.158;2023-07-20T09:46:01;98639.75;;;25.87;37.96
77587;BME280;66744;49.716;17.158;2023-07-20T09:49:11;98625.06;;;25.81;38.23
77587;BME280;66744;49.716;17.158;2023-07-20T09:52:13;98636.03;;;25.92;37.18
77587;BME280;66744;49.716;17.158;2023-07-20T09:55:16;98627.38;;;25.70;37.05
77587;BME280;66744;49.716;17.158;2023-07-20T09:58:19;98641.47;;;25.70;37.26
77587;BME280;66744;49.716;17.158;2023-07-20T10:01:21;98643.66;;;25.84;36.86
77587;BME280;66744;49.716;17.158;2023-07-20T10:04:23;98627.47;;;25.98;36.22
77587;BME280;66744;49.716;17.158;2023-07-20T10:07:27;98639.47;;;25.98;36.22
77587;BME280;66744;49.716;17.158;2023-07-20T10:10:41;98628.75;;;25.97;34.86
77587;BME280;66744;49.716;17.158;2023-07-20T10:13:49;98620.16;;;26.03;35.68
77587;BME280;66744;49.716;17.158;2023-07-20T10:16:55;98605.66;;;25.98;34.26
77587;BME280;66744;49.716;17.158;2023-07-20T10:20:02;98608.84;;;26.16;34.73
77587;BME280;66744;49.716;17.158;2023-07-20T10:23:09;98613.13;;;26.37;34.63
77587;BME280;66744;49.716;17.158;2023-07-20T10:26:15;98604.66;;;26.37;35.14
77587;BME280;66744;49.716;17.158;2023-07-20T10:29:16;98603.41;;;26.18;35.04
77587;BME280;66744;49.716;17.158;2023-07-20T10:32:24;98607.28;;;26.07;32.72
77587;BME280;66744;49.716;17.158;2023-07-20T10:35:26;98619.22;;;26.00;33.08
77587;BME280;66744;49.716;17.158;2023-07-20T10:41:49;98612.47;;;26.24;33.45
77587;BME280;66744;49.716;17.158;2023-07-20T10:44:51;98598.84;;;26.35;32.94
77587;BME280;66744;49.716;17.158;2023-07-20T10:47:58;98605.69;;;26.47;31.98
77587;BME280;66744;49.716;17.158;2023-07-20T10:51:12;98604.41;;;26.56;31.50
77587;BME280;66744;49.716;17.158;2023-07-20T10:57:28;98598.66;;;26.69;31.08
77587;BME280;66744;49.716;17.158;2023-07-20T11:00:29;98589.78;;;26.58;31.04
77587;BME280;66744;49.716;17.158;2023-07-20T11:03:33;98574.00;;;26.55;31.09
77587;BME280;66744;49.716;17.158;2023-07-20T11:06:36;98579.47;;;26.68;31.85
77587;BME280;66744;49.716;17.158;2023-07-20T11:09:39;98584.47;;;26.82;31.76
77587;BME280;66744;49.716;17.158;2023-07-20T11:13:23;98583.66;;;26.74;29.83
77587;BME280;66744;49.716;17.158;2023-07-20T11:19:36;98577.53;;;26.83;30.98
77587;BME280;66744;49.716;17.158;2023-07-20T11:22:39;98590.88;;;26.83;29.11
77587;BME280;66744;49.716;17.158;2023-07-20T11:25:43;98582.31;;;26.68;29.47
77587;BME280;66744;49.716;17.158;2023-07-20T11:28:51;98599.34;;;26.55;30.25
77587;BME280;66744;49.716;17.158;2023-07-20T11:31:53;98594.75;;;26.44;30.15
77587;BME280;66744;49.716;17.158;2023-07-20T11:34:54;98612.16;;;26.35;30.84
77587;BME280;66744;49.716;17.158;2023-07-20T11:37:56;98623.41;;;26.27;31.06
77587;BME280;66744;49.716;17.158;2023-07-20T11:40:57;98630.19;;;26.11;31.46
77587;BME280;66744;49.716;17.158;2023-07-20T11:43:59;98655.63;;;25.98;31.13
77587;BME280;66744;49.716;17.158;2023-07-20T11:47:09;98652.25;;;25.79;33.22
77587;BME280;66744;49.716;17.158;2023-07-20T11:50:11;98689.00;;;25.60;36.93
77587;BME280;66744;49.716;17.158;2023-07-20T11:53:15;98698.69;;;25.25;37.66
77587;BME280;66744;49.716;17.158;2023-07-20T11:56:17;98703.06;;;24.87;43.19
77587;BME280;66744;49.716;17.158;2023-07-20T11:59:23;98700.97;;;24.48;44.64
77587;BME280;66744;49.716;17.158;2023-07-20T12:02:27;98716.19;;;24.40;46.00
77587;BME280;66744;49.716;17.158;2023-07-20T12:05:31;98685.59;;;24.23;45.75
77587;BME280;66744;49.716;17.158;2023-07-20T12:08:35;98684.75;;;24.09;45.32
77587;BME280;66744;49.716;17.158;2023-07-20T12:11:49;98685.88;;;23.88;47.63
77587;BME280;66744;49.716;17.158;2023-07-20T12:14:50;98679.13;;;23.96;46.68
77587;BME280;66744;49.716;17.158;2023-07-20T12:17:53;98671.59;;;24.04;46.35
77587;BME280;66744;49.716;17.158;2023-07-20T12:21:03;98675.34;;;24.25;46.15
77587;BME280;66744;49.716;17.158;2023-07-20T12:24:23;98660.78;;;24.40;46.26
77587;BME280;66744;49.716;17.158;2023-07-20T12:27:27;98653.41;;;24.50;45.94
77587;BME280;66744;49.716;17.158;2023-07-20T12:30:29;98654.41;;;24.53;46.30
77587;BME280;66744;49.716;17.158;2023-07-20T12:33:31;98647.19;;;24.70;45.57
77587;BME280;66744;49.716;17.158;2023-07-20T12:36:32;98648.47;;;24.82;45.27
77587;BME280;66744;49.716;17.158;2023-07-20T12:39:34;98645.97;;;24.92;45.03
77587;BME280;66744;49.716;17.158;2023-07-20T12:42:37;98635.13;;;25.09;44.31
77587;BME280;66744;49.716;17.158;2023-07-20T12:45:44;98631.41;;;25.27;44.06
77587;BME280;66744;49.716;17.158;2023-07-20T12:48:52;98623.69;;;25.41;42.35
77587;BME280;66744;49.716;17.158;2023-07-20T12:51:56;98624.75;;;25.51;39.73
77587;BME280;66744;49.716;17.158;2023-07-20T12:54:58;98619.88;;;25.52;40.71
77587;BME280;66744;49.716;17.158;2023-07-20T12:57:59;98628.16;;;25.70;38.47
77587;BME280;66744;49.716;17.158;2023-07-20T13:01:01;98625.38;;;25.78;37.09
77587;BME280;66744;49.716;17.158;2023-07-20T13:04:03;98617.94;;;25.80;36.83
77587;BME280;66744;49.716;17.158;2023-07-20T13:07:10;98621.47;;;25.81;36.74
77587;BME280;66744;49.716;17.158;2023-07-20T13:10:13;98627.09;;;26.02;37.38
77587;BME280;66744;49.716;17.158;2023-07-20T13:13:14;98620.59;;;26.07;35.65
77587;BME280;66744;49.716;17.158;2023-07-20T13:16:15;98623.25;;;26.12;34.55
77587;BME280;66744;49.716;17.158;2023-07-20T13:19:20;98614.97;;;26.07;34.54
77587;BME280;66744;49.716;17.158;2023-07-20T13:22:45;98621.34;;;26.07;35.80
77587;BME280;66744;49.716;17.158;2023-07-20T13:25:46;98613.38;;;25.98;35.47
77587;BME280;66744;49.716;17.158;2023-07-20T13:28:48;98618.25;;;25.98;36.26
77587;BME280;66744;49.716;17.158;2023-07-20T13:31:52;98615.97;;;25.96;35.95
77587;BME280;66744;49.716;17.158;2023-07-20T13:34:54;98619.22;;;26.00;35.55
77587;BME280;66744;49.716;17.158;2023-07-20T13:38:09;98624.56;;;26.11;35.66
77587;BME280;66744;49.716;17.158;2023-07-20T13:41:10;98608.91;;;26.23;36.46
77587;BME280;66744;49.716;17.158;2023-07-20T13:44:12;98602.44;;;26.43;34.15
77587;BME280;66744;49.716;17.158;2023-07-20T13:47:16;98598.00;;;26.48;33.68
77587;BME280;66744;49.716;17.158;2023-07-20T13:50:21;98611.63;;;26.36;31.72
77587;BME280;66744;49.716;17.158;2023-07-20T13:53:22;98615.56;;;26.33;32.25
77587;BME280;66744;49.716;17.158;2023-07-20T13:56:24;98610.56;;;26.19;32.02
77587;BME280;66744;49.716;17.158;2023-07-20T13:59:28;98613.28;;;26.11;32.48
77587;BME280;66744;49.716;17.158;2023-07-20T14:02:29;98627.38;;;26.11;32.04
77587;BME280;66744;49.716;17.158;2023-07-20T14:05:31;98633.94;;;26.14;32.20
77587;BME280;66744;49.716;17.158;2023-07-20T14:08:32;98630.47;;;26.00;31.51
77587;BME280;66744;49.716;17.158;2023-07-20T14:11:34;98627.47;;;25.98;32.25
77587;BME280;66744;49.716;17.158;2023-07-20T14:14:35;98621.47;;;26.02;31.32
77587;BME280;66744;49.716;17.158;2023-07-20T14:17:37;98630.75;;;25.89;30.88
77587;BME280;66744;49.716;17.158;2023-07-20T14:20:38;98617.31;;;25.74;31.62
77587;BME280;66744;49.716;17.158;2023-07-20T14:23:40;98633.50;;;25.81;31.35
77587;BME280;66744;49.716;17.158;2023-07-20T14:26:41;98640.50;;;25.88;30.55
77587;BME280;66744;49.716;17.158;2023-07-20T14:29:44;98630.19;;;25.90;30.79
77587;BME280;66744;49.716;17.158;2023-07-20T14:32:45;98629.19;;;26.01;31.06
77587;BME280;66744;49.716;17.158;2023-07-20T14:35:47;98625.03;;;26.02;30.89
77587;BME280;66744;49.716;17.158;2023-07-20T14:38:48;98625.66;;;26.08;29.62
77587;BME280;66744;49.716;17.158;2023-07-20T14:41:57;98618.66;;;26.02;29.83
77587;BME280;66744;49.716;17.158;2023-07-20T14:44:59;98620.13;;;25.95;29.49
77587;BME280;66744;49.716;17.158;2023-07-20T14:48:00;98630.28;;;25.98;29.60
77587;BME280;66744;49.716;17.158;2023-07-20T14:51:04;98618.41;;;25.92;29.70
77587;BME280;66744;49.716;17.158;2023-07-20T14:54:06;98606.66;;;26.01;30.11
77587;BME280;66744;49.716;17.158;2023-07-20T14:57:07;98599.84;;;26.17;29.51
77587;BME280;66744;49.716;17.158;2023-07-20T15:00:14;98595.47;;;26.37;29.35
77587;BME280;66744;49.716;17.158;2023-07-20T15:03:16;98596.06;;;26.43;28.63
77587;BME280;66744;49.716;17.158;2023-07-20T15:06:17;98600.25;;;26.49;28.39
77587;BME280;66744;49.716;17.158;2023-07-20T15:09:19;98594.59;;;26.49;28.46
77587;BME280;66744;49.716;17.158;2023-07-20T15:12:20;98592.13;;;26.46;27.82
77587;BME280;66744;49.716;17.158;2023-07-20T15:15:21;98609.91;;;26.33;27.49
77587;BME280;66744;49.716;17.158;2023-07-20T15:18:23;98601.13;;;26.16;27.67
77587;BME280;66744;49.716;17.158;2023-07-20T15:21:24;98598.44;;;26.11;27.76
77587;BME280;66744;49.716;17.158;2023-07-20T15:24:26;98600.78;;;26.20;27.14
77587;BME280;66744;49.716;17.158;2023-07-20T15:27:30;98591.59;;;26.19;28.04
77587;BME280;66744;49.716;17.158;2023-07-20T15:30:34;98585.53;;;26.36;27.02
77587;BME280;66744;49.716;17.158;2023-07-20T15:33:38;98596.59;;;26.34;27.50
77587;BME280;66744;49.716;17.158;2023-07-20T15:36:43;98590.75;;;26.11;27.76
77587;BME280;66744;49.716;17.158;2023-07-20T15:39:48;98597.44;;;26.21;27.22
77587;BME280;66744;49.716;17.158;2023-07-20T15:42:52;98589.38;;;26.05;27.05
77587;BME280;66744;49.716;17.158;2023-07-20T15:49:29;98602.66;;;25.96;27.34
77587;BME280;66744;49.716;17.158;2023-07-20T15:52:31;98600.75;;;25.91;27.21
77587;BME280;66744;49.716;17.158;2023-07-20T15:55:32;98607.38;;;26.02;27.17
77587;BME280;66744;49.716;17.158;2023-07-20T15:58:37;98599.09;;;25.96;27.32
77587;BME280;66744;49.716;17.158;2023-07-20T16:01:41;98592.91;;;25.98;27.18
77587;BME280;66744;49.716;17.158;2023-07-20T16:04:43;98602.94;;;26.06;27.21
77587;BME280;66744;49.716;17.158;2023-07-20T16:07:46;98596.97;;;26.10;27.75
77587;BME280;66744;49.716;17.158;2023-07-20T16:10:48;98602.16;;;26.06;27.68
77587;BME280;66744;49.716;17.158;2023-07-20T16:13:50;98597.84;;;26.05;27.68
77587;BME280;66744;49.716;17.158;2023-07-20T16:16:53;98605.66;;;26.19;27.67
77587;BME280;66744;49.716;17.158;2023-07-20T16:19:54;98601.72;;;26.15;28.23
77587;BME280;66744;49.716;17.158;2023-07-20T16:22:56;98602.22;;;26.13;28.34